Stephen M. White — WCU6542 — position and weather

sailwx.info

Track history (hours):
 
Tides and Currents Weather Stations Pressure Air Temp Water Temp Dewpoint Dewpoint Depression Visibility Wind Speed Wind Dir Waves Ship Positions

Stephen M. White

Owner: LOS ANGELES, CITY OF, SAN PEDRO, CA. More information available from US FCC via Universal Licensing System and Coast Guard Vessel Documentation Center.

Last reported at 2014-Nov-23 04:23 UTC. Time now 2014-Nov-23 08:50 UTC.
Position N 33°43' W 118°16'.

Length 20 m.

Type: Pilot. MMSI: 367049470.

Date/timePositionNaut miles runAvg speedWind from/ knotsBaromVisibWave heightAir tempDewpointWater temp
2014-Nov-23 04:23N 33°43' W 118°16'0 0.0
2014-Nov-23 03:32N 33°43' W 118°16'1 0.8
2014-Nov-23 02:33N 33°43' W 118°15'1 0.8
2014-Nov-23 01:33N 33°43' W 118°16'0 0.0
2014-Nov-23 00:33N 33°43' W 118°16'0 0.0
2014-Nov-22 23:33N 33°43' W 118°16'0 0.0
2014-Nov-22 22:33N 33°43' W 118°16'0 0.0
2014-Nov-22 21:33N 33°43' W 118°16'0 0.0
2014-Nov-22 20:28N 33°43' W 118°16'2 0.2
2014-Nov-22 12:14N 33°42' W 118°15'1 0.0
2014-Nov-20 12:17N 33°43' W 118°15'1 0.4
2014-Nov-20 09:15N 33°43' W 118°16'0 0.0
2014-Nov-20 07:22N 33°43' W 118°16'0 0.0
2014-Nov-20 06:33N 33°43' W 118°16'0 0.0
2014-Nov-20 05:33N 33°43' W 118°16'0 0.0
2014-Nov-20 04:33N 33°43' W 118°16'0 0.0
2014-Nov-20 03:34N 33°43' W 118°16'0 0.0
2014-Nov-20 02:34N 33°43' W 118°16'0 0.0
2014-Nov-20 01:33N 33°43' W 118°16'0 0.0
2014-Nov-20 00:33N 33°43' W 118°16'0 0.0
2014-Nov-19 23:32N 33°43' W 118°16'2 1.9
2014-Nov-19 22:33N 33°42' W 118°15'2 1.7
2014-Nov-19 21:34N 33°43' W 118°16'0 0.4
2014-Nov-19 20:33N 33°43' W 118°16'0 0.0
2014-Nov-19 19:33N 33°43' W 118°16'0 0.0
2014-Nov-19 18:26N 33°43' W 118°16'0 0.0
2014-Nov-19 17:34N 33°43' W 118°16'0 0.0
2014-Nov-19 16:27N 33°43' W 118°16'0 0.0
2014-Nov-19 15:10N 33°43' W 118°16'0 0.0
2014-Nov-19 14:18N 33°43' W 118°16'5 5.8
2014-Nov-19 13:23N 33°40' W 118°12'2 1.8
2014-Nov-19 12:19N 33°41' W 118°14'3 4.5
2014-Nov-19 11:33N 33°43' W 118°16'0 0.0
2014-Nov-19 10:33N 33°43' W 118°16'0 0.0
2014-Nov-19 09:33N 33°43' W 118°16'0 0.0
2014-Nov-19 08:33N 33°43' W 118°16'0 0.0
2014-Nov-19 07:33N 33°43' W 118°16'0 0.0
2014-Nov-19 06:33N 33°43' W 118°16'0 0.0
2014-Nov-19 05:33N 33°43' W 118°16'0 0.0
2014-Nov-19 04:33N 33°43' W 118°16'0 0.0
2014-Nov-19 03:33N 33°43' W 118°16'0 0.0
2014-Nov-19 02:33N 33°43' W 118°16'0 0.0
2014-Nov-19 01:33N 33°43' W 118°16'0 0.0
2014-Nov-19 00:33N 33°43' W 118°16'0 0.0
2014-Nov-18 23:33N 33°43' W 118°16'5 5.4
2014-Nov-18 22:33N 33°38' W 118°15'5 4.7
2014-Nov-18 21:34N 33°43' W 118°15'1 0.9
2014-Nov-18 20:33N 33°43' W 118°16'0 0.0
2014-Nov-18 19:33N 33°43' W 118°16'0 0.0
2014-Nov-18 18:33N 33°43' W 118°16'0 0.0
2014-Nov-18 17:33N 33°43' W 118°16'0 0.0
2014-Nov-18 16:33N 33°43' W 118°16'0 0.0
2014-Nov-18 15:33N 33°43' W 118°16'0 0.0
2014-Nov-18 14:33N 33°43' W 118°16'0 0.0
2014-Nov-18 13:33N 33°43' W 118°16'0 0.0
2014-Nov-18 12:33N 33°43' W 118°16'0 0.0
2014-Nov-18 11:33N 33°43' W 118°16'0 0.0
2014-Nov-18 10:33N 33°43' W 118°16'0 0.0
2014-Nov-18 09:33N 33°43' W 118°16'0 0.0
2014-Nov-18 08:33N 33°43' W 118°16'0 0.0
2014-Nov-18 07:33N 33°43' W 118°16'0 0.0
2014-Nov-18 06:33N 33°43' W 118°16'0 0.0
2014-Nov-18 05:33N 33°43' W 118°16'0 0.0
2014-Nov-18 04:33N 33°43' W 118°16'0 0.0
2014-Nov-18 03:33N 33°43' W 118°16'0 0.0
2014-Nov-18 02:33N 33°43' W 118°16'0 0.1
2014-Nov-18 01:34N 33°43' W 118°16'0 0.1
2014-Nov-18 00:33N 33°43' W 118°16'0 0.0
2014-Nov-17 23:33N 33°43' W 118°16'0 0.0
2014-Nov-17 22:11N 33°43' W 118°16'0 0.0
2014-Nov-17 21:33N 33°43' W 118°16'0 0.0
2014-Nov-17 20:33N 33°43' W 118°16'0 0.0
2014-Nov-17 19:33N 33°43' W 118°16'2 0.4
2014-Nov-17 15:05N 33°42' W 118°15'4 2.1
2014-Nov-17 13:20N 33°39' W 118°12'4 4.5
2014-Nov-17 12:31N 33°42' W 118°15'3 0.1
2014-Nov-16 09:34N 33°44' W 118°12'  
Track history (hours):
 
Tides and Currents Weather Stations Pressure Air Temp Water Temp Dewpoint Dewpoint Depression Visibility Wind Speed Wind Dir Waves Ship Positions

Stephen M. White

Owner: LOS ANGELES, CITY OF, SAN PEDRO, CA. More information available from US FCC via Universal Licensing System and Coast Guard Vessel Documentation Center.

Last reported at 2014-Nov-23 04:23 UTC. Time now 2014-Nov-23 08:50 UTC.
Position N 33°43' W 118°16'.

Length 20 m.

Type: Pilot. MMSI: 367049470.

Date/timePositionNaut miles runAvg speedWind from/ knotsBaromVisibWave heightAir tempDewpointWater temp
2014-Nov-23 04:23N 33°43' W 118°16'0 0.0
2014-Nov-23 03:32N 33°43' W 118°16'1 0.8
2014-Nov-23 02:33N 33°43' W 118°15'1 0.8
2014-Nov-23 01:33N 33°43' W 118°16'0 0.0
2014-Nov-23 00:33N 33°43' W 118°16'0 0.0
2014-Nov-22 23:33N 33°43' W 118°16'0 0.0
2014-Nov-22 22:33N 33°43' W 118°16'0 0.0
2014-Nov-22 21:33N 33°43' W 118°16'0 0.0
2014-Nov-22 20:28N 33°43' W 118°16'2 0.2
2014-Nov-22 12:14N 33°42' W 118°15'1 0.0
2014-Nov-20 12:17N 33°43' W 118°15'1 0.4
2014-Nov-20 09:15N 33°43' W 118°16'0 0.0
2014-Nov-20 07:22N 33°43' W 118°16'0 0.0
2014-Nov-20 06:33N 33°43' W 118°16'0 0.0
2014-Nov-20 05:33N 33°43' W 118°16'0 0.0
2014-Nov-20 04:33N 33°43' W 118°16'0 0.0
2014-Nov-20 03:34N 33°43' W 118°16'0 0.0
2014-Nov-20 02:34N 33°43' W 118°16'0 0.0
2014-Nov-20 01:33N 33°43' W 118°16'0 0.0
2014-Nov-20 00:33N 33°43' W 118°16'0 0.0
2014-Nov-19 23:32N 33°43' W 118°16'2 1.9
2014-Nov-19 22:33N 33°42' W 118°15'2 1.7
2014-Nov-19 21:34N 33°43' W 118°16'0 0.4
2014-Nov-19 20:33N 33°43' W 118°16'0 0.0
2014-Nov-19 19:33N 33°43' W 118°16'0 0.0
2014-Nov-19 18:26N 33°43' W 118°16'0 0.0
2014-Nov-19 17:34N 33°43' W 118°16'0 0.0
2014-Nov-19 16:27N 33°43' W 118°16'0 0.0
2014-Nov-19 15:10N 33°43' W 118°16'0 0.0
2014-Nov-19 14:18N 33°43' W 118°16'5 5.8
2014-Nov-19 13:23N 33°40' W 118°12'2 1.8
2014-Nov-19 12:19N 33°41' W 118°14'3 4.5
2014-Nov-19 11:33N 33°43' W 118°16'0 0.0
2014-Nov-19 10:33N 33°43' W 118°16'0 0.0
2014-Nov-19 09:33N 33°43' W 118°16'0 0.0
2014-Nov-19 08:33N 33°43' W 118°16'0 0.0
2014-Nov-19 07:33N 33°43' W 118°16'0 0.0
2014-Nov-19 06:33N 33°43' W 118°16'0 0.0
2014-Nov-19 05:33N 33°43' W 118°16'0 0.0
2014-Nov-19 04:33N 33°43' W 118°16'0 0.0
2014-Nov-19 03:33N 33°43' W 118°16'0 0.0
2014-Nov-19 02:33N 33°43' W 118°16'0 0.0
2014-Nov-19 01:33N 33°43' W 118°16'0 0.0
2014-Nov-19 00:33N 33°43' W 118°16'0 0.0
2014-Nov-18 23:33N 33°43' W 118°16'5 5.4
2014-Nov-18 22:33N 33°38' W 118°15'5 4.7
2014-Nov-18 21:34N 33°43' W 118°15'1 0.9
2014-Nov-18 20:33N 33°43' W 118°16'0 0.0
2014-Nov-18 19:33N 33°43' W 118°16'0 0.0
2014-Nov-18 18:33N 33°43' W 118°16'0 0.0
2014-Nov-18 17:33N 33°43' W 118°16'0 0.0
2014-Nov-18 16:33N 33°43' W 118°16'0 0.0
2014-Nov-18 15:33N 33°43' W 118°16'0 0.0
2014-Nov-18 14:33N 33°43' W 118°16'0 0.0
2014-Nov-18 13:33N 33°43' W 118°16'0 0.0
2014-Nov-18 12:33N 33°43' W 118°16'0 0.0
2014-Nov-18 11:33N 33°43' W 118°16'0 0.0
2014-Nov-18 10:33N 33°43' W 118°16'0 0.0
2014-Nov-18 09:33N 33°43' W 118°16'0 0.0
2014-Nov-18 08:33N 33°43' W 118°16'0 0.0
2014-Nov-18 07:33N 33°43' W 118°16'0 0.0
2014-Nov-18 06:33N 33°43' W 118°16'0 0.0
2014-Nov-18 05:33N 33°43' W 118°16'0 0.0
2014-Nov-18 04:33N 33°43' W 118°16'0 0.0
2014-Nov-18 03:33N 33°43' W 118°16'0 0.0
2014-Nov-18 02:33N 33°43' W 118°16'0 0.1
2014-Nov-18 01:34N 33°43' W 118°16'0 0.1
2014-Nov-18 00:33N 33°43' W 118°16'0 0.0
2014-Nov-17 23:33N 33°43' W 118°16'0 0.0
2014-Nov-17 22:11N 33°43' W 118°16'0 0.0
2014-Nov-17 21:33N 33°43' W 118°16'0 0.0
2014-Nov-17 20:33N 33°43' W 118°16'0 0.0
2014-Nov-17 19:33N 33°43' W 118°16'2 0.4
2014-Nov-17 15:05N 33°42' W 118°15'4 2.1
2014-Nov-17 13:20N 33°39' W 118°12'4 4.5
2014-Nov-17 12:31N 33°42' W 118°15'3 0.1
2014-Nov-16 09:34N 33°44' W 118°12'  

Dump ship's entire track history